sensor_id;sensor_type;location;lat;lon;timestamp;P1;durP1;ratioP1;P2;durP2;ratioP2
69126;SDS011;56688;50.234;19.292;2022-07-06T00:01:41;8.80;;;7.90;;
69126;SDS011;56688;50.234;19.292;2022-07-06T00:04:08;13.20;;;9.30;;
69126;SDS011;56688;50.234;19.292;2022-07-06T00:06:35;14.00;;;10.80;;
69126;SDS011;56688;50.234;19.292;2022-07-06T00:09:02;11.80;;;10.60;;
69126;SDS011;56688;50.234;19.292;2022-07-06T00:11:30;18.10;;;13.90;;
69126;SDS011;56688;50.234;19.292;2022-07-06T00:13:57;22.70;;;15.60;;
69126;SDS011;56688;50.234;19.292;2022-07-06T00:16:24;20.70;;;14.30;;
69126;SDS011;56688;50.234;19.292;2022-07-06T00:18:53;23.20;;;15.60;;
69126;SDS011;56688;50.234;19.292;2022-07-06T00:21:20;27.00;;;16.40;;
69126;SDS011;56688;50.234;19.292;2022-07-06T00:23:48;28.40;;;17.90;;
69126;SDS011;56688;50.234;19.292;2022-07-06T00:26:14;26.40;;;18.10;;
69126;SDS011;56688;50.234;19.292;2022-07-06T00:28:41;24.80;;;17.80;;
69126;SDS011;56688;50.234;19.292;2022-07-06T00:31:08;25.70;;;17.70;;
69126;SDS011;56688;50.234;19.292;2022-07-06T00:33:35;28.50;;;17.30;;
69126;SDS011;56688;50.234;19.292;2022-07-06T00:36:02;30.00;;;17.90;;
69126;SDS011;56688;50.234;19.292;2022-07-06T00:38:29;26.10;;;17.30;;
69126;SDS011;56688;50.234;19.292;2022-07-06T00:40:56;32.10;;;18.40;;
69126;SDS011;56688;50.234;19.292;2022-07-06T00:43:23;28.00;;;17.00;;
69126;SDS011;56688;50.234;19.292;2022-07-06T00:45:50;27.70;;;17.60;;
69126;SDS011;56688;50.234;19.292;2022-07-06T00:48:17;26.70;;;17.40;;
69126;SDS011;56688;50.234;19.292;2022-07-06T00:50:44;30.40;;;18.80;;
69126;SDS011;56688;50.234;19.292;2022-07-06T00:53:11;32.20;;;18.60;;
69126;SDS011;56688;50.234;19.292;2022-07-06T00:55:39;26.90;;;18.80;;
69126;SDS011;56688;50.234;19.292;2022-07-06T00:58:07;28.50;;;19.70;;
69126;SDS011;56688;50.234;19.292;2022-07-06T01:00:35;30.20;;;19.90;;
69126;SDS011;56688;50.234;19.292;2022-07-06T01:03:03;27.10;;;18.40;;
69126;SDS011;56688;50.234;19.292;2022-07-06T01:05:30;28.80;;;18.60;;
69126;SDS011;56688;50.234;19.292;2022-07-06T01:07:57;28.20;;;19.00;;
69126;SDS011;56688;50.234;19.292;2022-07-06T01:10:25;26.10;;;18.50;;
69126;SDS011;56688;50.234;19.292;2022-07-06T01:12:52;29.30;;;18.90;;
69126;SDS011;56688;50.234;19.292;2022-07-06T01:15:20;29.60;;;18.40;;
69126;SDS011;56688;50.234;19.292;2022-07-06T01:17:49;30.90;;;19.00;;
69126;SDS011;56688;50.234;19.292;2022-07-06T01:20:24;25.10;;;17.70;;
69126;SDS011;56688;50.234;19.292;2022-07-06T01:22:53;30.30;;;18.70;;
69126;SDS011;56688;50.234;19.292;2022-07-06T01:25:22;21.50;;;15.90;;
69126;SDS011;56688;50.234;19.292;2022-07-06T01:27:49;24.40;;;16.70;;
69126;SDS011;56688;50.234;19.292;2022-07-06T01:30:17;23.30;;;16.30;;
69126;SDS011;56688;50.234;19.292;2022-07-06T01:32:45;23.80;;;17.10;;
69126;SDS011;56688;50.234;19.292;2022-07-06T01:35:14;24.10;;;16.90;;
69126;SDS011;56688;50.234;19.292;2022-07-06T01:37:42;26.20;;;16.80;;
69126;SDS011;56688;50.234;19.292;2022-07-06T01:40:10;23.10;;;17.10;;
69126;SDS011;56688;50.234;19.292;2022-07-06T01:42:38;23.30;;;16.60;;
69126;SDS011;56688;50.234;19.292;2022-07-06T01:45:06;25.10;;;17.40;;
69126;SDS011;56688;50.234;19.292;2022-07-06T01:47:35;24.10;;;17.10;;
69126;SDS011;56688;50.234;19.292;2022-07-06T01:50:04;21.90;;;16.60;;
69126;SDS011;56688;50.234;19.292;2022-07-06T01:52:35;22.70;;;16.50;;
69126;SDS011;56688;50.234;19.292;2022-07-06T01:55:04;23.00;;;16.00;;
69126;SDS011;56688;50.234;19.292;2022-07-06T01:57:33;20.60;;;16.90;;
69126;SDS011;56688;50.234;19.292;2022-07-06T02:00:00;24.10;;;17.40;;
69126;SDS011;56688;50.234;19.292;2022-07-06T02:02:38;23.80;;;16.70;;
69126;SDS011;56688;50.234;19.292;2022-07-06T02:05:06;22.30;;;16.90;;
69126;SDS011;56688;50.234;19.292;2022-07-06T02:07:33;22.30;;;17.20;;
69126;SDS011;56688;50.234;19.292;2022-07-06T02:10:01;19.60;;;16.20;;
69126;SDS011;56688;50.234;19.292;2022-07-06T02:12:28;21.40;;;16.20;;
69126;SDS011;56688;50.234;19.292;2022-07-06T02:14:55;24.50;;;17.30;;
69126;SDS011;56688;50.234;19.292;2022-07-06T02:17:22;21.50;;;17.90;;
69126;SDS011;56688;50.234;19.292;2022-07-06T02:19:49;23.00;;;17.90;;
69126;SDS011;56688;50.234;19.292;2022-07-06T02:22:16;22.30;;;17.40;;
69126;SDS011;56688;50.234;19.292;2022-07-06T02:24:43;24.30;;;16.30;;
69126;SDS011;56688;50.234;19.292;2022-07-06T02:27:10;22.80;;;17.00;;
69126;SDS011;56688;50.234;19.292;2022-07-06T02:29:38;24.80;;;16.50;;
69126;SDS011;56688;50.234;19.292;2022-07-06T02:32:05;22.30;;;17.90;;
69126;SDS011;56688;50.234;19.292;2022-07-06T02:34:32;21.60;;;17.60;;
69126;SDS011;56688;50.234;19.292;2022-07-06T02:36:59;29.50;;;20.30;;
69126;SDS011;56688;50.234;19.292;2022-07-06T02:39:27;26.50;;;20.60;;
69126;SDS011;56688;50.234;19.292;2022-07-06T02:41:54;27.20;;;19.30;;
69126;SDS011;56688;50.234;19.292;2022-07-06T02:44:22;25.30;;;20.00;;
69126;SDS011;56688;50.234;19.292;2022-07-06T02:46:50;22.60;;;19.30;;
69126;SDS011;56688;50.234;19.292;2022-07-06T02:49:17;26.40;;;20.70;;
69126;SDS011;56688;50.234;19.292;2022-07-06T02:51:45;31.20;;;21.20;;
69126;SDS011;56688;50.234;19.292;2022-07-06T02:54:12;26.70;;;22.10;;
69126;SDS011;56688;50.234;19.292;2022-07-06T02:56:39;29.30;;;21.50;;
69126;SDS011;56688;50.234;19.292;2022-07-06T02:59:07;27.40;;;21.90;;
69126;SDS011;56688;50.234;19.292;2022-07-06T03:01:40;27.30;;;22.30;;
69126;SDS011;56688;50.234;19.292;2022-07-06T03:04:07;27.90;;;21.60;;
69126;SDS011;56688;50.234;19.292;2022-07-06T03:06:34;27.40;;;21.70;;
69126;SDS011;56688;50.234;19.292;2022-07-06T03:09:02;29.10;;;21.90;;
69126;SDS011;56688;50.234;19.292;2022-07-06T03:11:29;30.50;;;22.40;;
69126;SDS011;56688;50.234;19.292;2022-07-06T03:13:56;30.10;;;23.00;;
69126;SDS011;56688;50.234;19.292;2022-07-06T03:16:25;27.60;;;21.90;;
69126;SDS011;56688;50.234;19.292;2022-07-06T03:18:52;27.70;;;22.20;;
69126;SDS011;56688;50.234;19.292;2022-07-06T03:21:19;27.20;;;21.90;;
69126;SDS011;56688;50.234;19.292;2022-07-06T03:23:46;25.70;;;21.00;;
69126;SDS011;56688;50.234;19.292;2022-07-06T03:26:13;28.90;;;22.30;;
69126;SDS011;56688;50.234;19.292;2022-07-06T03:28:41;29.70;;;21.70;;
69126;SDS011;56688;50.234;19.292;2022-07-06T03:31:08;29.50;;;23.10;;
69126;SDS011;56688;50.234;19.292;2022-07-06T03:33:35;31.40;;;23.30;;
69126;SDS011;56688;50.234;19.292;2022-07-06T03:36:02;31.50;;;23.10;;
69126;SDS011;56688;50.234;19.292;2022-07-06T03:38:29;32.40;;;22.50;;
69126;SDS011;56688;50.234;19.292;2022-07-06T03:40:57;27.10;;;20.40;;
69126;SDS011;56688;50.234;19.292;2022-07-06T03:43:24;31.80;;;21.00;;
69126;SDS011;56688;50.234;19.292;2022-07-06T03:45:52;28.80;;;21.00;;
69126;SDS011;56688;50.234;19.292;2022-07-06T03:48:19;31.50;;;21.20;;
69126;SDS011;56688;50.234;19.292;2022-07-06T03:50:47;26.70;;;20.40;;
69126;SDS011;56688;50.234;19.292;2022-07-06T03:53:15;27.90;;;20.00;;
69126;SDS011;56688;50.234;19.292;2022-07-06T03:55:43;25.30;;;19.00;;
69126;SDS011;56688;50.234;19.292;2022-07-06T03:58:10;26.20;;;17.90;;
69126;SDS011;56688;50.234;19.292;2022-07-06T04:00:39;30.70;;;18.20;;
69126;SDS011;56688;50.234;19.292;2022-07-06T04:03:08;25.90;;;17.60;;
69126;SDS011;56688;50.234;19.292;2022-07-06T04:05:40;24.80;;;18.10;;
69126;SDS011;56688;50.234;19.292;2022-07-06T04:08:07;27.30;;;17.90;;
69126;SDS011;56688;50.234;19.292;2022-07-06T04:10:38;25.70;;;18.00;;
69126;SDS011;56688;50.234;19.292;2022-07-06T04:13:06;24.20;;;17.20;;
69126;SDS011;56688;50.234;19.292;2022-07-06T04:15:33;29.70;;;17.00;;
69126;SDS011;56688;50.234;19.292;2022-07-06T04:18:01;26.40;;;17.10;;
69126;SDS011;56688;50.234;19.292;2022-07-06T04:20:32;19.30;;;15.00;;
69126;SDS011;56688;50.234;19.292;2022-07-06T04:23:00;21.50;;;15.70;;
69126;SDS011;56688;50.234;19.292;2022-07-06T04:25:27;21.70;;;15.20;;
69126;SDS011;56688;50.234;19.292;2022-07-06T04:27:57;15.40;;;11.00;;
69126;SDS011;56688;50.234;19.292;2022-07-06T04:30:25;15.20;;;12.20;;
69126;SDS011;56688;50.234;19.292;2022-07-06T04:32:53;20.90;;;12.90;;
69126;SDS011;56688;50.234;19.292;2022-07-06T04:35:22;15.00;;;12.30;;
69126;SDS011;56688;50.234;19.292;2022-07-06T04:37:50;18.30;;;13.20;;
69126;SDS011;56688;50.234;19.292;2022-07-06T04:40:18;17.80;;;11.70;;
69126;SDS011;56688;50.234;19.292;2022-07-06T04:42:47;16.90;;;11.80;;
69126;SDS011;56688;50.234;19.292;2022-07-06T04:45:14;16.20;;;12.50;;
69126;SDS011;56688;50.234;19.292;2022-07-06T04:47:41;17.20;;;12.40;;
69126;SDS011;56688;50.234;19.292;2022-07-06T04:50:12;16.50;;;12.70;;
69126;SDS011;56688;50.234;19.292;2022-07-06T04:52:39;15.10;;;12.90;;
69126;SDS011;56688;50.234;19.292;2022-07-06T04:55:07;18.10;;;14.20;;
69126;SDS011;56688;50.234;19.292;2022-07-06T04:57:35;17.90;;;13.20;;
69126;SDS011;56688;50.234;19.292;2022-07-06T05:00:03;16.00;;;12.70;;
69126;SDS011;56688;50.234;19.292;2022-07-06T05:02:31;20.00;;;14.20;;
69126;SDS011;56688;50.234;19.292;2022-07-06T05:04:59;19.80;;;13.80;;
69126;SDS011;56688;50.234;19.292;2022-07-06T05:07:27;19.40;;;13.30;;
69126;SDS011;56688;50.234;19.292;2022-07-06T05:09:55;19.50;;;14.40;;
69126;SDS011;56688;50.234;19.292;2022-07-06T05:12:22;19.20;;;13.50;;
69126;SDS011;56688;50.234;19.292;2022-07-06T05:14:50;18.90;;;13.40;;
69126;SDS011;56688;50.234;19.292;2022-07-06T05:17:18;23.80;;;13.60;;
69126;SDS011;56688;50.234;19.292;2022-07-06T05:19:49;20.20;;;13.70;;
69126;SDS011;56688;50.234;19.292;2022-07-06T05:22:16;18.90;;;14.00;;
69126;SDS011;56688;50.234;19.292;2022-07-06T05:24:43;22.90;;;14.20;;
69126;SDS011;56688;50.234;19.292;2022-07-06T05:27:10;21.10;;;14.00;;
69126;SDS011;56688;50.234;19.292;2022-07-06T05:29:37;22.00;;;13.80;;
69126;SDS011;56688;50.234;19.292;2022-07-06T05:32:04;18.60;;;14.10;;
69126;SDS011;56688;50.234;19.292;2022-07-06T05:34:32;19.60;;;14.20;;
69126;SDS011;56688;50.234;19.292;2022-07-06T05:37:00;20.60;;;15.50;;
69126;SDS011;56688;50.234;19.292;2022-07-06T05:39:27;23.10;;;16.30;;
69126;SDS011;56688;50.234;19.292;2022-07-06T05:41:56;19.50;;;15.20;;
69126;SDS011;56688;50.234;19.292;2022-07-06T05:44:23;17.60;;;14.30;;
69126;SDS011;56688;50.234;19.292;2022-07-06T05:46:51;18.60;;;14.50;;
69126;SDS011;56688;50.234;19.292;2022-07-06T05:49:18;17.40;;;14.30;;
69126;SDS011;56688;50.234;19.292;2022-07-06T05:52:01;20.40;;;14.10;;
69126;SDS011;56688;50.234;19.292;2022-07-06T05:54:28;16.50;;;13.80;;
69126;SDS011;56688;50.234;19.292;2022-07-06T05:56:55;20.70;;;15.70;;
69126;SDS011;56688;50.234;19.292;2022-07-06T05:59:22;19.10;;;14.80;;
69126;SDS011;56688;50.234;19.292;2022-07-06T06:01:50;16.80;;;13.80;;
69126;SDS011;56688;50.234;19.292;2022-07-06T06:04:20;16.60;;;14.20;;
69126;SDS011;56688;50.234;19.292;2022-07-06T06:06:47;15.20;;;13.60;;
69126;SDS011;56688;50.234;19.292;2022-07-06T06:09:14;16.30;;;14.40;;
69126;SDS011;56688;50.234;19.292;2022-07-06T06:11:41;15.30;;;12.90;;
69126;SDS011;56688;50.234;19.292;2022-07-06T06:14:09;13.60;;;12.20;;
69126;SDS011;56688;50.234;19.292;2022-07-06T06:16:35;16.40;;;13.80;;
69126;SDS011;56688;50.234;19.292;2022-07-06T06:19:03;16.40;;;13.10;;
69126;SDS011;56688;50.234;19.292;2022-07-06T06:21:30;14.10;;;12.20;;
69126;SDS011;56688;50.234;19.292;2022-07-06T06:23:57;13.80;;;11.60;;
69126;SDS011;56688;50.234;19.292;2022-07-06T06:26:24;14.50;;;11.30;;
69126;SDS011;56688;50.234;19.292;2022-07-06T06:28:51;14.00;;;11.80;;
69126;SDS011;56688;50.234;19.292;2022-07-06T06:31:18;13.70;;;11.50;;
69126;SDS011;56688;50.234;19.292;2022-07-06T06:33:45;13.00;;;10.50;;
69126;SDS011;56688;50.234;19.292;2022-07-06T06:36:11;11.40;;;9.80;;
69126;SDS011;56688;50.234;19.292;2022-07-06T06:38:39;11.60;;;10.40;;
69126;SDS011;56688;50.234;19.292;2022-07-06T06:41:06;11.70;;;9.90;;
69126;SDS011;56688;50.234;19.292;2022-07-06T06:43:33;11.70;;;10.40;;
69126;SDS011;56688;50.234;19.292;2022-07-06T06:46:05;13.90;;;10.30;;
69126;SDS011;56688;50.234;19.292;2022-07-06T06:48:32;12.50;;;9.70;;
69126;SDS011;56688;50.234;19.292;2022-07-06T06:51:00;11.80;;;9.90;;
69126;SDS011;56688;50.234;19.292;2022-07-06T06:53:26;11.20;;;9.00;;
69126;SDS011;56688;50.234;19.292;2022-07-06T06:55:53;11.80;;;9.10;;
69126;SDS011;56688;50.234;19.292;2022-07-06T06:58:20;10.00;;;7.10;;
69126;SDS011;56688;50.234;19.292;2022-07-06T07:00:48;8.40;;;7.50;;
69126;SDS011;56688;50.234;19.292;2022-07-06T07:03:15;8.40;;;6.90;;
69126;SDS011;56688;50.234;19.292;2022-07-06T07:05:42;7.70;;;6.60;;
69126;SDS011;56688;50.234;19.292;2022-07-06T07:08:09;9.00;;;8.10;;
69126;SDS011;56688;50.234;19.292;2022-07-06T07:10:36;13.40;;;10.00;;
69126;SDS011;56688;50.234;19.292;2022-07-06T07:13:03;11.80;;;10.50;;
69126;SDS011;56688;50.234;19.292;2022-07-06T07:15:30;13.80;;;12.40;;
69126;SDS011;56688;50.234;19.292;2022-07-06T07:17:57;20.20;;;17.80;;
69126;SDS011;56688;50.234;19.292;2022-07-06T07:20:24;32.90;;;23.40;;
69126;SDS011;56688;50.234;19.292;2022-07-06T07:22:52;32.40;;;26.40;;
69126;SDS011;56688;50.234;19.292;2022-07-06T07:25:18;39.10;;;27.10;;
69126;SDS011;56688;50.234;19.292;2022-07-06T07:27:45;33.30;;;27.00;;
69126;SDS011;56688;50.234;19.292;2022-07-06T07:30:12;37.50;;;24.80;;
69126;SDS011;56688;50.234;19.292;2022-07-06T07:32:39;33.30;;;23.60;;
69126;SDS011;56688;50.234;19.292;2022-07-06T07:35:08;30.40;;;23.90;;
69126;SDS011;56688;50.234;19.292;2022-07-06T07:37:35;29.70;;;22.60;;
69126;SDS011;56688;50.234;19.292;2022-07-06T07:40:02;31.10;;;23.40;;
69126;SDS011;56688;50.234;19.292;2022-07-06T07:42:31;28.30;;;21.00;;
69126;SDS011;56688;50.234;19.292;2022-07-06T07:44:58;25.50;;;18.50;;
69126;SDS011;56688;50.234;19.292;2022-07-06T07:47:25;24.90;;;17.10;;
69126;SDS011;56688;50.234;19.292;2022-07-06T07:49:52;22.40;;;16.90;;
69126;SDS011;56688;50.234;19.292;2022-07-06T07:52:19;24.60;;;17.80;;
69126;SDS011;56688;50.234;19.292;2022-07-06T07:54:45;21.60;;;16.00;;
69126;SDS011;56688;50.234;19.292;2022-07-06T07:57:28;19.80;;;14.90;;
69126;SDS011;56688;50.234;19.292;2022-07-06T07:59:55;17.30;;;14.40;;
69126;SDS011;56688;50.234;19.292;2022-07-06T08:02:22;16.50;;;14.10;;
69126;SDS011;56688;50.234;19.292;2022-07-06T08:04:49;21.30;;;13.70;;
69126;SDS011;56688;50.234;19.292;2022-07-06T08:07:16;15.70;;;13.90;;
69126;SDS011;56688;50.234;19.292;2022-07-06T08:09:43;14.70;;;12.40;;
69126;SDS011;56688;50.234;19.292;2022-07-06T08:12:10;13.20;;;11.70;;
69126;SDS011;56688;50.234;19.292;2022-07-06T08:14:36;15.70;;;11.50;;
69126;SDS011;56688;50.234;19.292;2022-07-06T08:17:04;16.70;;;12.30;;
69126;SDS011;56688;50.234;19.292;2022-07-06T08:19:31;13.90;;;12.50;;
69126;SDS011;56688;50.234;19.292;2022-07-06T08:21:58;16.40;;;13.70;;
69126;SDS011;56688;50.234;19.292;2022-07-06T08:24:25;14.30;;;11.80;;
69126;SDS011;56688;50.234;19.292;2022-07-06T08:26:52;12.40;;;10.60;;
69126;SDS011;56688;50.234;19.292;2022-07-06T08:29:19;10.70;;;9.30;;
69126;SDS011;56688;50.234;19.292;2022-07-06T08:31:46;13.20;;;8.40;;
69126;SDS011;56688;50.234;19.292;2022-07-06T08:34:23;8.50;;;7.70;;
69126;SDS011;56688;50.234;19.292;2022-07-06T08:36:57;8.60;;;6.20;;
69126;SDS011;56688;50.234;19.292;2022-07-06T08:39:24;6.50;;;5.70;;
69126;SDS011;56688;50.234;19.292;2022-07-06T08:41:51;10.60;;;4.90;;
69126;SDS011;56688;50.234;19.292;2022-07-06T08:44:18;8.80;;;4.20;;
69126;SDS011;56688;50.234;19.292;2022-07-06T08:46:45;8.20;;;4.90;;
69126;SDS011;56688;50.234;19.292;2022-07-06T08:49:13;5.30;;;4.20;;
69126;SDS011;56688;50.234;19.292;2022-07-06T08:51:42;8.00;;;4.20;;
69126;SDS011;56688;50.234;19.292;2022-07-06T08:54:09;4.70;;;3.50;;
69126;SDS011;56688;50.234;19.292;2022-07-06T08:56:38;5.80;;;3.20;;
69126;SDS011;56688;50.234;19.292;2022-07-06T08:59:13;10.00;;;4.00;;
69126;SDS011;56688;50.234;19.292;2022-07-06T09:01:42;2.70;;;2.50;;
69126;SDS011;56688;50.234;19.292;2022-07-06T09:04:13;5.40;;;2.90;;
69126;SDS011;56688;50.234;19.292;2022-07-06T09:06:42;3.50;;;2.40;;
69126;SDS011;56688;50.234;19.292;2022-07-06T09:09:12;6.70;;;2.70;;
69126;SDS011;56688;50.234;19.292;2022-07-06T09:11:49;3.80;;;2.30;;
69126;SDS011;56688;50.234;19.292;2022-07-06T09:14:16;6.90;;;2.50;;
69126;SDS011;56688;50.234;19.292;2022-07-06T09:16:43;2.40;;;2.20;;
69126;SDS011;56688;50.234;19.292;2022-07-06T09:19:12;3.70;;;2.20;;
69126;SDS011;56688;50.234;19.292;2022-07-06T09:21:40;4.80;;;2.20;;
69126;SDS011;56688;50.234;19.292;2022-07-06T09:24:09;4.40;;;2.10;;
69126;SDS011;56688;50.234;19.292;2022-07-06T09:26:38;3.00;;;2.30;;
69126;SDS011;56688;50.234;19.292;2022-07-06T09:29:06;3.90;;;2.00;;
69126;SDS011;56688;50.234;19.292;2022-07-06T09:31:34;5.50;;;2.40;;
69126;SDS011;56688;50.234;19.292;2022-07-06T09:34:03;2.10;;;1.90;;
69126;SDS011;56688;50.234;19.292;2022-07-06T09:41:48;5.20;;;2.20;;
69126;SDS011;56688;50.234;19.292;2022-07-06T09:44:19;4.10;;;2.20;;
69126;SDS011;56688;50.234;19.292;2022-07-06T09:46:48;3.10;;;2.20;;
69126;SDS011;56688;50.234;19.292;2022-07-06T09:49:17;2.40;;;2.10;;
69126;SDS011;56688;50.234;19.292;2022-07-06T09:51:46;3.80;;;2.20;;
69126;SDS011;56688;50.234;19.292;2022-07-06T09:54:14;3.20;;;2.20;;
69126;SDS011;56688;50.234;19.292;2022-07-06T09:56:42;3.20;;;2.00;;
69126;SDS011;56688;50.234;19.292;2022-07-06T09:59:11;2.80;;;2.00;;
69126;SDS011;56688;50.234;19.292;2022-07-06T10:01:39;4.30;;;2.20;;
69126;SDS011;56688;50.234;19.292;2022-07-06T10:04:08;2.40;;;2.00;;
69126;SDS011;56688;50.234;19.292;2022-07-06T10:06:40;2.20;;;2.00;;
69126;SDS011;56688;50.234;19.292;2022-07-06T10:09:07;4.60;;;2.20;;
69126;SDS011;56688;50.234;19.292;2022-07-06T10:11:41;4.20;;;2.00;;
69126;SDS011;56688;50.234;19.292;2022-07-06T10:14:11;3.90;;;2.60;;
69126;SDS011;56688;50.234;19.292;2022-07-06T10:16:42;4.80;;;2.30;;
69126;SDS011;56688;50.234;19.292;2022-07-06T10:19:09;4.40;;;2.30;;
69126;SDS011;56688;50.234;19.292;2022-07-06T10:21:37;3.20;;;1.90;;
69126;SDS011;56688;50.234;19.292;2022-07-06T10:24:06;6.40;;;2.20;;
69126;SDS011;56688;50.234;19.292;2022-07-06T10:26:34;2.30;;;2.00;;
69126;SDS011;56688;50.234;19.292;2022-07-06T10:29:02;4.60;;;1.90;;
69126;SDS011;56688;50.234;19.292;2022-07-06T10:31:32;5.20;;;2.00;;
69126;SDS011;56688;50.234;19.292;2022-07-06T10:34:01;3.60;;;1.80;;
69126;SDS011;56688;50.234;19.292;2022-07-06T10:36:36;3.50;;;1.80;;
69126;SDS011;56688;50.234;19.292;2022-07-06T10:41:48;7.50;;;1.80;;
69126;SDS011;56688;50.234;19.292;2022-07-06T10:44:17;3.50;;;2.10;;
69126;SDS011;56688;50.234;19.292;2022-07-06T10:46:50;3.80;;;2.00;;
69126;SDS011;56688;50.234;19.292;2022-07-06T10:49:20;3.40;;;2.00;;
69126;SDS011;56688;50.234;19.292;2022-07-06T10:52:08;2.50;;;2.20;;
69126;SDS011;56688;50.234;19.292;2022-07-06T10:54:38;2.40;;;1.90;;
69126;SDS011;56688;50.234;19.292;2022-07-06T10:57:09;2.20;;;1.80;;
69126;SDS011;56688;50.234;19.292;2022-07-06T10:59:36;2.90;;;1.80;;
69126;SDS011;56688;50.234;19.292;2022-07-06T11:02:11;6.30;;;1.80;;
69126;SDS011;56688;50.234;19.292;2022-07-06T11:04:42;4.40;;;1.80;;
69126;SDS011;56688;50.234;19.292;2022-07-06T11:07:12;2.40;;;1.90;;
69126;SDS011;56688;50.234;19.292;2022-07-06T11:09:41;3.20;;;1.90;;
69126;SDS011;56688;50.234;19.292;2022-07-06T11:12:20;3.60;;;1.60;;
69126;SDS011;56688;50.234;19.292;2022-07-06T11:14:48;3.80;;;2.20;;
69126;SDS011;56688;50.234;19.292;2022-07-06T11:17:16;5.50;;;1.90;;
69126;SDS011;56688;50.234;19.292;2022-07-06T11:22:42;2.30;;;2.00;;
69126;SDS011;56688;50.234;19.292;2022-07-06T11:25:10;4.50;;;2.30;;
69126;SDS011;56688;50.234;19.292;2022-07-06T11:27:37;4.20;;;2.20;;
69126;SDS011;56688;50.234;19.292;2022-07-06T11:30:04;4.30;;;2.30;;
69126;SDS011;56688;50.234;19.292;2022-07-06T11:32:33;3.80;;;2.10;;
69126;SDS011;56688;50.234;19.292;2022-07-06T11:35:02;3.50;;;2.20;;
69126;SDS011;56688;50.234;19.292;2022-07-06T11:37:29;4.00;;;2.20;;
69126;SDS011;56688;50.234;19.292;2022-07-06T11:39:56;4.20;;;1.80;;
69126;SDS011;56688;50.234;19.292;2022-07-06T11:42:23;3.80;;;2.20;;
69126;SDS011;56688;50.234;19.292;2022-07-06T11:44:50;4.90;;;1.90;;
69126;SDS011;56688;50.234;19.292;2022-07-06T11:47:20;2.90;;;1.70;;
69126;SDS011;56688;50.234;19.292;2022-07-06T11:49:50;2.50;;;2.10;;
69126;SDS011;56688;50.234;19.292;2022-07-06T11:52:19;4.80;;;2.00;;
69126;SDS011;56688;50.234;19.292;2022-07-06T11:54:46;2.30;;;1.60;;
69126;SDS011;56688;50.234;19.292;2022-07-06T11:57:13;3.10;;;1.80;;
69126;SDS011;56688;50.234;19.292;2022-07-06T11:59:40;5.10;;;1.80;;
69126;SDS011;56688;50.234;19.292;2022-07-06T12:02:10;2.90;;;1.80;;
69126;SDS011;56688;50.234;19.292;2022-07-06T12:04:40;3.20;;;2.00;;
69126;SDS011;56688;50.234;19.292;2022-07-06T12:07:11;3.00;;;1.80;;
69126;SDS011;56688;50.234;19.292;2022-07-06T12:12:13;2.00;;;1.80;;
69126;SDS011;56688;50.234;19.292;2022-07-06T12:14:42;3.40;;;2.00;;
69126;SDS011;56688;50.234;19.292;2022-07-06T12:17:10;3.00;;;1.70;;
69126;SDS011;56688;50.234;19.292;2022-07-06T12:19:39;4.00;;;1.50;;
69126;SDS011;56688;50.234;19.292;2022-07-06T12:22:08;2.60;;;1.50;;
69126;SDS011;56688;50.234;19.292;2022-07-06T12:24:36;4.00;;;1.60;;
69126;SDS011;56688;50.234;19.292;2022-07-06T12:27:11;6.00;;;1.50;;
69126;SDS011;56688;50.234;19.292;2022-07-06T12:29:41;3.00;;;1.40;;
69126;SDS011;56688;50.234;19.292;2022-07-06T12:32:26;3.00;;;1.50;;
69126;SDS011;56688;50.234;19.292;2022-07-06T12:37:38;3.60;;;1.50;;
69126;SDS011;56688;50.234;19.292;2022-07-06T12:40:12;1.90;;;1.70;;
69126;SDS011;56688;50.234;19.292;2022-07-06T12:42:47;2.50;;;1.50;;
69126;SDS011;56688;50.234;19.292;2022-07-06T12:45:15;2.20;;;1.70;;
69126;SDS011;56688;50.234;19.292;2022-07-06T12:47:52;2.20;;;1.60;;
69126;SDS011;56688;50.234;19.292;2022-07-06T12:52:59;2.30;;;1.60;;
69126;SDS011;56688;50.234;19.292;2022-07-06T12:55:27;1.90;;;1.40;;
69126;SDS011;56688;50.234;19.292;2022-07-06T12:57:57;3.70;;;1.90;;
69126;SDS011;56688;50.234;19.292;2022-07-06T13:00:25;3.30;;;1.90;;
69126;SDS011;56688;50.234;19.292;2022-07-06T13:02:52;3.40;;;1.70;;
69126;SDS011;56688;50.234;19.292;2022-07-06T13:05:36;2.20;;;1.60;;
69126;SDS011;56688;50.234;19.292;2022-07-06T13:08:05;2.20;;;1.60;;
69126;SDS011;56688;50.234;19.292;2022-07-06T13:10:33;2.90;;;1.70;;
69126;SDS011;56688;50.234;19.292;2022-07-06T13:13:02;2.30;;;1.60;;
69126;SDS011;56688;50.234;19.292;2022-07-06T13:15:29;5.20;;;1.60;;
69126;SDS011;56688;50.234;19.292;2022-07-06T13:17:56;6.40;;;1.80;;
69126;SDS011;56688;50.234;19.292;2022-07-06T13:20:23;3.40;;;1.90;;
69126;SDS011;56688;50.234;19.292;2022-07-06T13:22:50;4.20;;;1.80;;
69126;SDS011;56688;50.234;19.292;2022-07-06T13:25:17;2.40;;;1.70;;
69126;SDS011;56688;50.234;19.292;2022-07-06T13:27:44;4.80;;;1.90;;
69126;SDS011;56688;50.234;19.292;2022-07-06T13:30:11;3.30;;;1.40;;
69126;SDS011;56688;50.234;19.292;2022-07-06T13:32:38;2.50;;;1.80;;
69126;SDS011;56688;50.234;19.292;2022-07-06T13:35:06;1.70;;;1.50;;
69126;SDS011;56688;50.234;19.292;2022-07-06T13:37:33;3.00;;;1.70;;
69126;SDS011;56688;50.234;19.292;2022-07-06T13:40:02;1.50;;;1.40;;
69126;SDS011;56688;50.234;19.292;2022-07-06T13:42:30;2.30;;;1.40;;
69126;SDS011;56688;50.234;19.292;2022-07-06T13:44:57;1.70;;;1.30;;
69126;SDS011;56688;50.234;19.292;2022-07-06T13:47:24;1.40;;;1.00;;
69126;SDS011;56688;50.234;19.292;2022-07-06T13:49:50;3.80;;;1.20;;
69126;SDS011;56688;50.234;19.292;2022-07-06T13:52:17;1.30;;;1.20;;
69126;SDS011;56688;50.234;19.292;2022-07-06T13:54:44;1.20;;;1.10;;
69126;SDS011;56688;50.234;19.292;2022-07-06T13:57:11;3.20;;;1.20;;
69126;SDS011;56688;50.234;19.292;2022-07-06T13:59:38;3.60;;;1.50;;
69126;SDS011;56688;50.234;19.292;2022-07-06T14:02:05;2.30;;;1.20;;
69126;SDS011;56688;50.234;19.292;2022-07-06T14:04:32;3.30;;;1.30;;
69126;SDS011;56688;50.234;19.292;2022-07-06T14:06:59;2.70;;;1.00;;
69126;SDS011;56688;50.234;19.292;2022-07-06T14:09:27;2.20;;;1.20;;
69126;SDS011;56688;50.234;19.292;2022-07-06T14:11:55;1.60;;;1.20;;
69126;SDS011;56688;50.234;19.292;2022-07-06T14:14:22;1.30;;;1.20;;
69126;SDS011;56688;50.234;19.292;2022-07-06T14:16:49;1.70;;;1.30;;
69126;SDS011;56688;50.234;19.292;2022-07-06T14:19:17;2.40;;;1.50;;
69126;SDS011;56688;50.234;19.292;2022-07-06T14:21:47;1.40;;;1.30;;
69126;SDS011;56688;50.234;19.292;2022-07-06T14:24:15;2.00;;;1.00;;
69126;SDS011;56688;50.234;19.292;2022-07-06T14:26:42;2.10;;;1.40;;
69126;SDS011;56688;50.234;19.292;2022-07-06T14:29:09;3.20;;;1.40;;
69126;SDS011;56688;50.234;19.292;2022-07-06T14:31:35;3.20;;;1.30;;
69126;SDS011;56688;50.234;19.292;2022-07-06T14:34:02;2.30;;;1.40;;
69126;SDS011;56688;50.234;19.292;2022-07-06T14:36:29;3.00;;;1.40;;
69126;SDS011;56688;50.234;19.292;2022-07-06T14:38:56;1.30;;;1.20;;
69126;SDS011;56688;50.234;19.292;2022-07-06T14:41:23;1.90;;;1.40;;
69126;SDS011;56688;50.234;19.292;2022-07-06T14:43:50;1.40;;;1.30;;
69126;SDS011;56688;50.234;19.292;2022-07-06T14:46:17;1.70;;;1.20;;